Time;durP1;ratioP1;P1;durP2;ratioP2;P2;SDS_P1;SDS_P2;PMS_P1;PMS_P2;Temp;Humidity;BMP_temperature;BMP_pressure;BME280_temperature;BME280_humidity;BME280_pressure;Samples;Min_cycle;Max_cycle;Signal;HPM_P1;HPM_P2
2023/04/09 00:01:04;;;;;;;6.68;6.10;;;;;;;;;;5118946;28;20234;-62
2023/04/09 00:03:32;;;;;;;6.97;6.38;;;;;;;;;;5118777;28;20222;-60
2023/04/09 00:05:59;;;;;;;7.10;6.50;;;;;;;;;;5118519;28;20203;-60
2023/04/09 00:08:27;;;;;;;6.70;6.15;;;;;;;;;;5119353;28;20203;-60
2023/04/09 00:10:54;;;;;;;6.70;6.10;;;;;;;;;;5118809;28;20203;-62
2023/04/09 00:13:22;;;;;;;6.70;6.10;;;;;;;;;;5119096;28;20206;-60
2023/04/09 00:15:51;;;;;;;6.60;6.05;;;;;;;;;;5118865;28;20203;-60
2023/04/09 00:18:18;;;;;;;7.15;6.55;;;;;;;;;;5119226;28;20528;-60
2023/04/09 00:20:46;;;;;;;6.97;6.38;;;;;;;;;;5118760;28;20202;-60
2023/04/09 00:23:13;;;;;;;6.35;5.85;;;;;;;;;;5138879;27;20610;-60
2023/04/09 00:25:41;;;;;;;7.07;6.47;;;;;;;;;;5139284;27;20288;-60
2023/04/09 00:28:08;;;;;;;6.22;5.72;;;;;;;;;;5139565;27;20217;-60
2023/04/09 00:30:36;;;;;;;6.75;6.15;;;;;;;;;;5139483;27;20203;-60
2023/04/09 00:33:04;;;;;;;6.80;6.20;;;;;;;;;;5139388;27;20209;-60
2023/04/09 00:35:32;;;;;;;6.88;6.28;;;;;;;;;;5139213;27;20525;-62
2023/04/09 00:37:59;;;;;;;7.07;6.47;;;;;;;;;;5139612;27;20252;-60
2023/04/09 00:40:27;;;;;;;6.55;5.95;;;;;;;;;;5139515;27;20212;-60
2023/04/09 00:42:55;;;;;;;6.30;5.80;;;;;;;;;;5138640;27;20226;-60
2023/04/09 00:45:23;;;;;;;7.15;6.55;;;;;;;;;;5139142;27;20213;-60
2023/04/09 00:47:51;;;;;;;7.30;6.70;;;;;;;;;;5138753;27;20259;-60
2023/04/09 00:50:20;;;;;;;6.97;6.30;;;;;;;;;;5139052;27;20209;-60
2023/04/09 00:52:48;;;;;;;6.95;6.40;;;;;;;;;;5126613;27;20534;-60
2023/04/09 00:55:15;;;;;;;6.95;6.35;;;;;;;;;;5118470;28;20542;-60
2023/04/09 00:57:42;;;;;;;6.20;5.70;;;;;;;;;;5118263;28;20336;-63
2023/04/09 01:00:11;;;;;;;6.70;6.10;;;;;;;;;;5118352;28;20213;-60
2023/04/09 01:02:39;;;;;;;6.95;6.35;;;;;;;;;;5117896;28;20233;-60
2023/04/09 01:05:07;;;;;;;6.60;6.10;;;;;;;;;;5117888;28;20297;-60
2023/04/09 01:07:43;;;;;;;6.80;6.20;;;;;;;;;;5118398;28;20312;-60
2023/04/09 01:10:14;;;;;;;7.00;6.40;;;;;;;;;;5118160;28;20297;-60
2023/04/09 01:12:46;;;;;;;6.80;6.30;;;;;;;;;;5118160;28;20289;-60
2023/04/09 01:15:15;;;;;;;6.28;5.78;;;;;;;;;;5118194;28;20203;-60
2023/04/09 01:17:45;;;;;;;6.47;5.97;;;;;;;;;;5118126;28;20230;-62
2023/04/09 01:20:14;;;;;;;7.00;6.40;;;;;;;;;;5118179;28;20815;-63
2023/04/09 01:22:49;;;;;;;7.00;6.40;;;;;;;;;;5117818;28;20274;-60
2023/04/09 01:25:24;;;;;;;6.80;6.20;;;;;;;;;;5117899;28;20210;-62
2023/04/09 01:27:55;;;;;;;6.75;6.15;;;;;;;;;;5117953;28;20485;-60
2023/04/09 01:30:25;;;;;;;7.10;6.40;;;;;;;;;;5118040;28;20203;-60
2023/04/09 01:32:53;;;;;;;6.78;6.18;;;;;;;;;;5117644;28;20298;-60
2023/04/09 01:35:21;;;;;;;6.88;6.28;;;;;;;;;;5117896;28;20203;-62
2023/04/09 01:37:49;;;;;;;6.78;6.18;;;;;;;;;;5116887;28;20604;-63
2023/04/09 01:40:17;;;;;;;6.63;6.03;;;;;;;;;;5117539;28;20217;-60
2023/04/09 01:42:44;;;;;;;7.13;6.53;;;;;;;;;;5117611;28;20271;-60
2023/04/09 01:45:13;;;;;;;6.97;6.38;;;;;;;;;;5117219;28;20677;-60
2023/04/09 01:47:42;;;;;;;7.03;6.43;;;;;;;;;;5117410;28;20268;-60
2023/04/09 01:50:10;;;;;;;7.00;6.40;;;;;;;;;;5118070;28;20294;-60
2023/04/09 01:52:37;;;;;;;6.47;5.97;;;;;;;;;;5117399;28;20332;-60
2023/04/09 01:55:05;;;;;;;6.70;6.10;;;;;;;;;;5117891;28;20225;-60
2023/04/09 01:58:03;;;;;;;6.80;6.30;;;;;;;;;;5116762;28;20203;-60
2023/04/09 02:00:33;;;;;;;6.82;6.22;;;;;;;;;;5117115;28;20317;-60
2023/04/09 02:03:06;;;;;;;7.15;6.53;;;;;;;;;;5117427;28;20249;-60
2023/04/09 02:05:36;;;;;;;6.75;6.15;;;;;;;;;;5117703;28;20293;-62
2023/04/09 02:08:06;;;;;;;6.90;6.30;;;;;;;;;;5118198;28;20262;-60
2023/04/09 02:10:36;;;;;;;7.03;6.43;;;;;;;;;;5121357;28;20210;-60
2023/04/09 02:13:06;;;;;;;7.53;6.90;;;;;;;;;;5121344;28;20199;-62
2023/04/09 02:15:35;;;;;;;6.90;6.30;;;;;;;;;;5121227;28;20214;-62
2023/04/09 02:18:04;;;;;;;7.72;7.03;;;;;;;;;;5121550;28;20269;-62
2023/04/09 02:20:32;;;;;;;7.80;7.10;;;;;;;;;;5120852;28;20207;-60
2023/04/09 02:22:59;;;;;;;6.88;6.28;;;;;;;;;;5139434;27;20236;-60
2023/04/09 02:25:27;;;;;;;7.28;6.68;;;;;;;;;;5141815;27;20585;-60
2023/04/09 02:27:55;;;;;;;7.47;6.78;;;;;;;;;;5141758;27;20554;-60
2023/04/09 02:30:23;;;;;;;7.55;6.85;;;;;;;;;;5141457;27;20221;-60
2023/04/09 02:32:50;;;;;;;8.00;7.30;;;;;;;;;;5141518;27;20202;-60
2023/04/09 02:35:19;;;;;;;7.53;6.85;;;;;;;;;;5141634;27;20202;-62
2023/04/09 02:37:47;;;;;;;7.97;7.28;;;;;;;;;;5141563;27;20263;-60
2023/04/09 02:40:15;;;;;;;7.57;6.88;;;;;;;;;;5141945;27;20202;-59
2023/04/09 02:42:42;;;;;;;7.57;6.88;;;;;;;;;;5141324;27;20213;-62
2023/04/09 02:45:11;;;;;;;8.13;7.32;;;;;;;;;;5140805;27;20305;-62
2023/04/09 02:47:38;;;;;;;7.88;7.18;;;;;;;;;;5141575;27;20203;-60
2023/04/09 02:50:06;;;;;;;8.00;7.30;;;;;;;;;;5141160;27;20202;-60
2023/04/09 02:52:35;;;;;;;8.38;7.57;;;;;;;;;;5130160;27;20207;-60
2023/04/09 02:55:03;;;;;;;8.52;7.72;;;;;;;;;;5120281;28;20211;-60
2023/04/09 02:57:32;;;;;;;8.02;7.28;;;;;;;;;;5120522;28;20269;-62
2023/04/09 02:59:59;;;;;;;8.43;7.63;;;;;;;;;;5120408;28;20652;-60
2023/04/09 03:02:27;;;;;;;8.32;7.53;;;;;;;;;;5120217;28;20198;-59
2023/04/09 03:04:55;;;;;;;8.20;7.43;;;;;;;;;;5119883;28;20230;-60
2023/04/09 03:07:23;;;;;;;8.50;7.70;;;;;;;;;;5111878;28;20210;-60
2023/04/09 03:09:52;;;;;;;8.57;7.78;;;;;;;;;;5130680;27;20589;-62
2023/04/09 03:12:20;;;;;;;8.38;7.57;;;;;;;;;;5140097;27;20210;-60
2023/04/09 03:14:48;;;;;;;8.40;7.60;;;;;;;;;;5121902;27;20206;-62
2023/04/09 03:17:15;;;;;;;9.30;8.40;;;;;;;;;;5120358;28;20203;-60
2023/04/09 03:19:43;;;;;;;8.82;8.02;;;;;;;;;;5119833;28;20249;-60
2023/04/09 03:22:11;;;;;;;8.63;7.82;;;;;;;;;;5120402;28;20288;-60
2023/04/09 03:24:39;;;;;;;9.25;8.30;;;;;;;;;;5119711;28;20234;-60
2023/04/09 03:27:08;;;;;;;9.40;8.50;;;;;;;;;;5119549;28;20203;-62
2023/04/09 03:29:35;;;;;;;8.63;7.82;;;;;;;;;;5119839;28;20213;-60
2023/04/09 03:32:03;;;;;;;8.50;7.70;;;;;;;;;;5119952;28;20221;-62
2023/04/09 03:34:30;;;;;;;8.75;7.95;;;;;;;;;;5119957;28;20199;-60
2023/04/09 03:36:58;;;;;;;8.88;8.07;;;;;;;;;;5120002;28;20246;-60
2023/04/09 03:39:29;;;;;;;9.02;8.13;;;;;;;;;;5119603;28;20203;-62
2023/04/09 03:41:58;;;;;;;8.65;7.85;;;;;;;;;;5119880;28;20203;-60
2023/04/09 03:44:27;;;;;;;9.30;8.40;;;;;;;;;;5119639;28;20234;-62
2023/04/09 03:46:54;;;;;;;8.77;7.97;;;;;;;;;;5119660;28;20203;-60
2023/04/09 03:49:22;;;;;;;8.90;8.00;;;;;;;;;;5119328;28;20271;-60
2023/04/09 03:51:49;;;;;;;9.30;8.40;;;;;;;;;;5119341;28;20264;-60
2023/04/09 03:54:17;;;;;;;9.30;8.45;;;;;;;;;;5119015;28;20198;-60
2023/04/09 03:56:44;;;;;;;9.32;8.43;;;;;;;;;;5119197;28;20203;-60
2023/04/09 03:59:12;;;;;;;9.23;8.32;;;;;;;;;;5119074;28;20210;-60
2023/04/09 04:01:40;;;;;;;9.73;8.73;;;;;;;;;;5119717;28;20516;-60
2023/04/09 04:04:08;;;;;;;9.18;8.27;;;;;;;;;;5119303;28;20227;-62
2023/04/09 04:06:35;;;;;;;9.50;8.60;;;;;;;;;;5118867;28;20211;-60
2023/04/09 04:09:03;;;;;;;9.07;8.18;;;;;;;;;;5119176;28;20203;-62
2023/04/09 04:11:30;;;;;;;9.63;8.68;;;;;;;;;;5119076;28;20210;-60
2023/04/09 04:13:57;;;;;;;9.10;8.20;;;;;;;;;;5119303;28;20199;-60
2023/04/09 04:16:25;;;;;;;8.95;8.15;;;;;;;;;;5118784;28;20203;-60
2023/04/09 04:18:53;;;;;;;9.85;8.85;;;;;;;;;;5118921;28;20203;-60
2023/04/09 04:21:21;;;;;;;9.27;8.35;;;;;;;;;;5118942;28;20238;-60
2023/04/09 04:23:48;;;;;;;9.77;8.77;;;;;;;;;;5118771;28;20227;-60
2023/04/09 04:26:15;;;;;;;8.98;8.18;;;;;;;;;;5118632;28;20203;-63
2023/04/09 04:28:42;;;;;;;9.15;8.25;;;;;;;;;;5118968;28;20203;-60
2023/04/09 04:31:10;;;;;;;9.00;8.10;;;;;;;;;;5117911;28;20210;-60
2023/04/09 04:33:38;;;;;;;9.40;8.50;;;;;;;;;;5118851;28;20199;-60
2023/04/09 04:36:07;;;;;;;9.90;8.90;;;;;;;;;;5119068;28;20555;-60
2023/04/09 04:38:35;;;;;;;9.50;8.60;;;;;;;;;;5118336;28;20202;-62
2023/04/09 04:41:02;;;;;;;9.57;8.65;;;;;;;;;;5118609;28;20211;-60
2023/04/09 04:43:29;;;;;;;8.88;7.97;;;;;;;;;;5118290;28;20242;-62
2023/04/09 04:45:56;;;;;;;9.93;8.93;;;;;;;;;;5118501;28;20211;-60
2023/04/09 04:48:24;;;;;;;9.32;8.43;;;;;;;;;;5118578;28;20203;-60
2023/04/09 04:50:55;;;;;;;9.23;8.43;;;;;;;;;;5118601;28;20214;-62
2023/04/09 04:53:24;;;;;;;9.00;8.13;;;;;;;;;;5118351;28;20298;-60
2023/04/09 04:55:51;;;;;;;9.40;8.52;;;;;;;;;;5118522;28;20211;-60
2023/04/09 04:58:19;;;;;;;9.40;8.50;;;;;;;;;;5118257;28;20210;-60
2023/04/09 05:00:46;;;;;;;9.68;8.77;;;;;;;;;;5118455;28;20252;-62
2023/04/09 05:03:14;;;;;;;10.07;9.07;;;;;;;;;;5117970;28;20257;-60
2023/04/09 05:05:41;;;;;;;9.85;8.95;;;;;;;;;;5118080;28;20225;-62
2023/04/09 05:08:09;;;;;;;9.60;8.70;;;;;;;;;;5118004;28;20263;-60
2023/04/09 05:10:37;;;;;;;9.25;8.35;;;;;;;;;;5117892;28;20210;-60
2023/04/09 05:13:05;;;;;;;10.25;9.25;;;;;;;;;;5118236;28;20203;-60
2023/04/09 05:15:32;;;;;;;9.75;8.85;;;;;;;;;;5118282;28;20286;-60
2023/04/09 05:18:00;;;;;;;9.48;8.57;;;;;;;;;;5117993;28;20214;-62
2023/04/09 05:20:28;;;;;;;9.60;8.70;;;;;;;;;;5118214;28;20219;-60
2023/04/09 05:22:55;;;;;;;9.85;8.82;;;;;;;;;;5134937;28;20345;-60
2023/04/09 05:25:22;;;;;;;9.23;8.32;;;;;;;;;;5138216;28;20234;-60
2023/04/09 05:27:51;;;;;;;9.88;8.90;;;;;;;;;;5138534;28;20202;-62
2023/04/09 05:30:19;;;;;;;9.77;8.77;;;;;;;;;;5138747;28;20210;-60
2023/04/09 05:32:46;;;;;;;9.60;8.70;;;;;;;;;;5138620;28;20228;-60
2023/04/09 05:35:13;;;;;;;8.98;8.07;;;;;;;;;;5138510;28;20202;-60
2023/04/09 05:37:41;;;;;;;9.02;8.20;;;;;;;;;;5138230;28;20210;-62
2023/04/09 05:40:09;;;;;;;9.40;8.60;;;;;;;;;;5138180;28;20198;-60
2023/04/09 05:42:36;;;;;;;10.15;9.15;;;;;;;;;;5138281;27;20202;-60
2023/04/09 05:45:05;;;;;;;10.25;9.25;;;;;;;;;;5142293;27;20226;-60
2023/04/09 05:47:33;;;;;;;10.02;9.13;;;;;;;;;;5142140;27;20607;-60
2023/04/09 05:50:00;;;;;;;10.38;9.38;;;;;;;;;;5142375;27;20266;-60
2023/04/09 05:52:27;;;;;;;10.27;9.27;;;;;;;;;;5142339;27;20202;-60
2023/04/09 05:54:55;;;;;;;10.80;9.70;;;;;;;;;;5142147;27;20209;-60
2023/04/09 05:57:22;;;;;;;9.75;8.85;;;;;;;;;;5142317;27;20214;-60
2023/04/09 05:59:50;;;;;;;9.80;8.90;;;;;;;;;;5142069;27;20270;-60
2023/04/09 06:02:18;;;;;;;9.23;8.32;;;;;;;;;;5133375;27;20264;-62
2023/04/09 06:04:46;;;;;;;9.75;8.85;;;;;;;;;;5121107;28;20227;-60
2023/04/09 06:07:13;;;;;;;9.68;8.77;;;;;;;;;;5108917;28;20199;-60
2023/04/09 06:09:42;;;;;;;9.52;8.63;;;;;;;;;;5122617;27;20630;-60
2023/04/09 06:12:10;;;;;;;9.30;8.40;;;;;;;;;;5141493;27;20786;-60
2023/04/09 06:14:37;;;;;;;9.38;8.48;;;;;;;;;;5122733;27;20575;-60
2023/04/09 06:17:05;;;;;;;8.95;8.15;;;;;;;;;;5121375;28;20213;-60
2023/04/09 06:19:33;;;;;;;9.73;8.73;;;;;;;;;;5120723;28;20214;-60
2023/04/09 06:22:01;;;;;;;9.57;8.68;;;;;;;;;;5121054;28;20550;-60
2023/04/09 06:24:28;;;;;;;9.48;8.57;;;;;;;;;;5120453;28;20238;-60
2023/04/09 06:26:55;;;;;;;9.68;8.77;;;;;;;;;;5120597;28;20207;-62
2023/04/09 06:29:23;;;;;;;9.60;8.70;;;;;;;;;;5120628;28;20210;-60
2023/04/09 06:31:50;;;;;;;9.40;8.50;;;;;;;;;;5120858;28;20266;-60
2023/04/09 06:34:17;;;;;;;9.60;8.60;;;;;;;;;;5120261;28;20244;-60
2023/04/09 06:36:46;;;;;;;9.63;7.97;;;;;;;;;;5120560;28;20276;-60
2023/04/09 06:39:13;;;;;;;9.10;8.20;;;;;;;;;;5120478;28;20213;-62
2023/04/09 06:41:41;;;;;;;9.23;8.43;;;;;;;;;;5138834;27;20270;-60
2023/04/09 06:44:08;;;;;;;9.32;8.43;;;;;;;;;;5140832;27;20263;-60
2023/04/09 06:46:35;;;;;;;8.70;7.90;;;;;;;;;;5140649;27;20206;-60
2023/04/09 06:49:03;;;;;;;8.90;8.10;;;;;;;;;;5126015;27;20273;-60
2023/04/09 06:51:30;;;;;;;8.98;7.78;;;;;;;;;;5120126;28;20211;-60
2023/04/09 06:53:59;;;;;;;8.98;8.07;;;;;;;;;;5119570;27;20227;-60
2023/04/09 06:56:26;;;;;;;8.63;7.82;;;;;;;;;;5120377;28;20203;-60
2023/04/09 06:58:53;;;;;;;8.77;7.97;;;;;;;;;;5124458;27;20198;-60
2023/04/09 07:01:21;;;;;;;8.75;7.95;;;;;;;;;;5140595;27;20258;-60
2023/04/09 07:03:48;;;;;;;8.38;7.57;;;;;;;;;;5140269;27;20263;-60
2023/04/09 07:06:16;;;;;;;9.00;8.10;;;;;;;;;;5140418;27;20628;-60
2023/04/09 07:08:43;;;;;;;8.48;7.65;;;;;;;;;;5132543;27;20542;-62
2023/04/09 07:11:11;;;;;;;9.43;8.52;;;;;;;;;;5138513;27;20580;-60
2023/04/09 07:13:39;;;;;;;9.30;8.45;;;;;;;;;;5121285;27;20199;-62
2023/04/09 07:16:06;;;;;;;10.07;9.07;;;;;;;;;;5130419;27;20210;-60
2023/04/09 07:18:34;;;;;;;11.07;9.25;;;;;;;;;;5119120;28;20207;-60
2023/04/09 07:21:01;;;;;;;9.60;8.70;;;;;;;;;;5120350;27;20252;-60
2023/04/09 07:23:28;;;;;;;9.73;8.90;;;;;;;;;;5140204;27;20267;-62
2023/04/09 07:25:55;;;;;;;9.40;8.48;;;;;;;;;;5139982;27;20255;-60
2023/04/09 07:28:25;;;;;;;9.63;8.63;;;;;;;;;;5139620;27;20210;-62
2023/04/09 07:30:52;;;;;;;9.23;8.32;;;;;;;;;;5111629;27;20208;-60
2023/04/09 07:33:19;;;;;;;9.93;8.95;;;;;;;;;;5099074;28;20469;-60
2023/04/09 07:35:46;;;;;;;8.57;7.75;;;;;;;;;;5098653;28;20762;-60
2023/04/09 07:38:15;;;;;;;9.15;8.23;;;;;;;;;;5098784;28;20200;-60
2023/04/09 07:40:42;;;;;;;8.90;8.00;;;;;;;;;;5117246;28;20207;-60
2023/04/09 07:43:10;;;;;;;9.13;8.20;;;;;;;;;;5118793;28;20207;-62
2023/04/09 07:45:38;;;;;;;8.73;7.93;;;;;;;;;;5109041;28;20220;-62
2023/04/09 07:48:07;;;;;;;8.30;7.50;;;;;;;;;;5098756;28;20551;-62
2023/04/09 07:50:35;;;;;;;8.70;7.90;;;;;;;;;;5110841;28;20284;-62
2023/04/09 07:53:02;;;;;;;9.15;7.72;;;;;;;;;;5117859;28;20200;-60
2023/04/09 07:55:29;;;;;;;8.02;7.32;;;;;;;;;;5118463;28;20471;-62
2023/04/09 07:57:57;;;;;;;8.70;7.80;;;;;;;;;;5118242;28;20198;-60
2023/04/09 08:00:24;;;;;;;8.63;7.82;;;;;;;;;;5118079;28;20281;-60
2023/04/09 08:02:53;;;;;;;8.27;7.47;;;;;;;;;;5099955;28;20203;-60
2023/04/09 08:05:20;;;;;;;8.82;7.90;;;;;;;;;;5097928;28;20296;-60
2023/04/09 08:07:48;;;;;;;8.98;8.18;;;;;;;;;;5097939;28;20200;-59
2023/04/09 08:10:15;;;;;;;8.32;7.53;;;;;;;;;;5112651;28;20267;-60
2023/04/09 08:12:43;;;;;;;8.68;7.88;;;;;;;;;;5117728;28;20253;-60
2023/04/09 08:15:10;;;;;;;9.63;7.88;;;;;;;;;;5099779;28;20286;-60
2023/04/09 08:17:38;;;;;;;8.70;7.90;;;;;;;;;;5097974;28;20583;-60
2023/04/09 08:20:07;;;;;;;8.25;7.50;;;;;;;;;;5097459;28;20207;-60
2023/04/09 08:22:35;;;;;;;7.85;7.05;;;;;;;;;;5106935;27;20643;-60
2023/04/09 08:25:02;;;;;;;8.30;7.50;;;;;;;;;;5130153;27;20615;-60
2023/04/09 08:27:30;;;;;;;7.40;6.57;;;;;;;;;;5117851;27;20194;-63
2023/04/09 08:29:57;;;;;;;7.93;7.20;;;;;;;;;;5137014;27;20293;-62
2023/04/09 08:32:24;;;;;;;7.55;6.75;;;;;;;;;;5136299;27;20605;-62
2023/04/09 08:34:52;;;;;;;7.50;6.80;;;;;;;;;;5124961;27;20467;-60
2023/04/09 08:37:21;;;;;;;7.97;7.20;;;;;;;;;;5117577;28;20495;-62
2023/04/09 08:39:48;;;;;;;7.55;6.78;;;;;;;;;;5131573;27;20548;-62
2023/04/09 08:42:16;;;;;;;7.60;6.90;;;;;;;;;;5137823;27;20587;-62
2023/04/09 08:44:43;;;;;;;7.55;6.85;;;;;;;;;;5136875;27;20324;-62
2023/04/09 08:47:11;;;;;;;7.30;6.70;;;;;;;;;;5118430;28;20206;-62
2023/04/09 08:49:40;;;;;;;7.72;6.95;;;;;;;;;;5128912;27;20205;-62
2023/04/09 08:52:07;;;;;;;7.95;7.25;;;;;;;;;;5117799;28;20237;-62
2023/04/09 08:54:36;;;;;;;8.20;7.38;;;;;;;;;;5117218;28;20203;-62
2023/04/09 08:57:05;;;;;;;7.25;6.55;;;;;;;;;;5117687;28;20283;-62
2023/04/09 08:59:35;;;;;;;8.02;7.32;;;;;;;;;;5117787;28;20206;-62
2023/04/09 09:02:09;;;;;;;7.80;7.10;;;;;;;;;;5117814;28;20263;-62
2023/04/09 09:04:47;;;;;;;7.03;6.43;;;;;;;;;;5117050;28;20202;-63
2023/04/09 09:07:14;;;;;;;7.90;7.20;;;;;;;;;;5117174;28;20279;-62
2023/04/09 09:09:53;;;;;;;7.97;7.28;;;;;;;;;;5116787;28;20528;-63
2023/04/09 09:12:36;;;;;;;6.70;6.10;;;;;;;;;;5116714;28;20305;-62
2023/04/09 09:15:04;;;;;;;7.82;7.10;;;;;;;;;;5117386;28;20264;-62
2023/04/09 09:17:32;;;;;;;7.50;6.80;;;;;;;;;;5116713;28;20203;-62
2023/04/09 09:20:00;;;;;;;8.20;7.40;;;;;;;;;;5124580;27;20202;-62
2023/04/09 09:22:27;;;;;;;7.55;6.85;;;;;;;;;;5136479;27;20287;-62
2023/04/09 09:24:56;;;;;;;6.70;6.10;;;;;;;;;;5137128;28;20202;-62
2023/04/09 09:27:33;;;;;;;7.93;7.13;;;;;;;;;;5135756;28;20194;-63
2023/04/09 09:30:02;;;;;;;7.30;6.60;;;;;;;;;;5129434;28;20608;-63
2023/04/09 09:32:30;;;;;;;7.70;7.00;;;;;;;;;;5136572;28;20637;-63
2023/04/09 09:35:02;;;;;;;7.82;7.13;;;;;;;;;;5135385;28;20439;-63
2023/04/09 09:37:29;;;;;;;8.05;7.35;;;;;;;;;;5129406;28;20198;-63
2023/04/09 09:39:58;;;;;;;8.43;7.70;;;;;;;;;;5116647;28;20837;-63
2023/04/09 09:42:26;;;;;;;8.82;8.02;;;;;;;;;;5116697;28;20275;-63
2023/04/09 09:44:54;;;;;;;9.32;8.45;;;;;;;;;;5115993;28;20582;-63
2023/04/09 09:47:21;;;;;;;8.10;7.30;;;;;;;;;;5116557;28;20206;-63
2023/04/09 09:49:49;;;;;;;8.45;7.22;;;;;;;;;;5117838;28;20594;-63
2023/04/09 09:52:18;;;;;;;7.90;7.05;;;;;;;;;;5116255;28;20763;-63
2023/04/09 09:54:48;;;;;;;8.30;7.50;;;;;;;;;;5115949;28;20202;-63
2023/04/09 09:57:21;;;;;;;8.02;7.28;;;;;;;;;;5119770;28;20552;-63
2023/04/09 09:59:52;;;;;;;8.13;7.40;;;;;;;;;;5121777;28;20261;-63
2023/04/09 10:02:20;;;;;;;8.35;7.55;;;;;;;;;;5115882;28;20202;-63
2023/04/09 10:04:49;;;;;;;8.10;7.40;;;;;;;;;;5125979;28;20222;-63
2023/04/09 10:07:16;;;;;;;8.35;7.55;;;;;;;;;;5135015;28;20576;-63
2023/04/09 10:09:50;;;;;;;8.35;7.53;;;;;;;;;;5116271;28;20265;-63
2023/04/09 10:12:21;;;;;;;7.72;7.03;;;;;;;;;;5116677;28;20579;-63
2023/04/09 10:14:49;;;;;;;8.07;7.38;;;;;;;;;;5116419;28;20210;-63
2023/04/09 10:17:16;;;;;;;7.85;7.05;;;;;;;;;;5116446;28;20203;-63
2023/04/09 10:19:47;;;;;;;8.88;7.50;;;;;;;;;;5116656;28;20264;-63
2023/04/09 10:22:16;;;;;;;8.20;7.38;;;;;;;;;;5122844;28;20222;-63
2023/04/09 10:24:44;;;;;;;7.93;7.22;;;;;;;;;;5135763;28;20538;-63
2023/04/09 10:27:12;;;;;;;8.00;7.20;;;;;;;;;;5135911;28;20222;-63
2023/04/09 10:29:45;;;;;;;8.00;7.20;;;;;;;;;;5121761;28;20577;-63
2023/04/09 10:32:13;;;;;;;8.13;6.97;;;;;;;;;;5119922;28;20207;-63
2023/04/09 10:34:40;;;;;;;7.90;7.10;;;;;;;;;;5119417;28;20483;-63
2023/04/09 10:37:08;;;;;;;8.43;7.00;;;;;;;;;;5120469;27;20195;-63
2023/04/09 10:39:39;;;;;;;9.70;7.22;;;;;;;;;;5120013;28;20542;-63
2023/04/09 10:42:08;;;;;;;8.77;7.53;;;;;;;;;;5120058;28;20283;-63
2023/04/09 10:44:37;;;;;;;7.40;6.70;;;;;;;;;;5137689;27;20293;-63
2023/04/09 10:47:05;;;;;;;8.02;7.22;;;;;;;;;;5121888;27;20226;-63
2023/04/09 10:49:36;;;;;;;9.50;7.55;;;;;;;;;;5138884;27;20297;-63
2023/04/09 10:52:05;;;;;;;9.50;7.53;;;;;;;;;;5129348;27;20282;-63
2023/04/09 10:54:42;;;;;;;7.97;6.93;;;;;;;;;;5127909;27;20222;-63
2023/04/09 10:57:13;;;;;;;8.75;7.03;;;;;;;;;;5123819;27;20200;-63
2023/04/09 10:59:41;;;;;;;7.20;6.47;;;;;;;;;;5130028;27;20223;-63
2023/04/09 11:02:12;;;;;;;6.95;6.25;;;;;;;;;;5118569;28;20199;-63
2023/04/09 11:04:42;;;;;;;7.47;6.78;;;;;;;;;;5119519;28;20203;-63
2023/04/09 11:07:10;;;;;;;7.63;6.80;;;;;;;;;;5119385;28;20234;-63
2023/04/09 11:09:37;;;;;;;7.18;6.40;;;;;;;;;;5118747;28;20207;-63
2023/04/09 11:12:04;;;;;;;7.57;6.40;;;;;;;;;;5119163;28;20211;-63
2023/04/09 11:14:32;;;;;;;8.13;6.80;;;;;;;;;;5131624;27;20206;-63
2023/04/09 11:16:59;;;;;;;8.85;6.82;;;;;;;;;;5119203;28;20200;-63
2023/04/09 11:19:28;;;;;;;7.95;6.70;;;;;;;;;;5119033;28;20593;-62
2023/04/09 11:21:55;;;;;;;6.97;6.18;;;;;;;;;;5127072;27;20298;-63
2023/04/09 11:24:23;;;;;;;6.68;5.97;;;;;;;;;;5139394;27;20464;-63
2023/04/09 11:26:50;;;;;;;6.72;6.05;;;;;;;;;;5114124;27;20230;-63
2023/04/09 11:29:18;;;;;;;6.63;6.03;;;;;;;;;;5098300;28;20273;-63
2023/04/09 11:31:45;;;;;;;7.55;5.90;;;;;;;;;;5098554;28;20211;-64
2023/04/09 11:34:13;;;;;;;7.70;5.93;;;;;;;;;;5098065;28;20207;-62
2023/04/09 11:36:42;;;;;;;6.70;6.03;;;;;;;;;;5098384;28;20200;-62
2023/04/09 11:39:09;;;;;;;6.50;5.90;;;;;;;;;;5098514;28;20204;-62
2023/04/09 11:41:37;;;;;;;6.50;5.90;;;;;;;;;;5098080;28;20588;-62
2023/04/09 11:44:04;;;;;;;7.53;5.90;;;;;;;;;;5097923;28;20265;-62
2023/04/09 11:46:33;;;;;;;6.13;5.47;;;;;;;;;;5098064;28;20562;-62
2023/04/09 11:49:00;;;;;;;6.22;5.63;;;;;;;;;;5098900;28;20211;-62
2023/04/09 11:51:29;;;;;;;5.80;5.30;;;;;;;;;;5117105;28;20207;-62
2023/04/09 11:54:02;;;;;;;5.97;5.38;;;;;;;;;;5117833;28;20199;-62
2023/04/09 11:56:30;;;;;;;5.95;5.38;;;;;;;;;;5118097;28;20241;-62
2023/04/09 11:58:57;;;;;;;6.10;5.57;;;;;;;;;;5117758;28;20544;-62
2023/04/09 12:01:25;;;;;;;6.32;5.72;;;;;;;;;;5118334;28;20207;-62
2023/04/09 12:03:53;;;;;;;6.18;5.57;;;;;;;;;;5118369;28;20207;-62
2023/04/09 12:06:21;;;;;;;6.45;5.60;;;;;;;;;;5118160;28;20712;-62
2023/04/09 12:08:49;;;;;;;6.40;5.38;;;;;;;;;;5118380;28;20204;-62
2023/04/09 12:11:17;;;;;;;6.00;5.50;;;;;;;;;;5118272;28;20682;-62
2023/04/09 12:13:46;;;;;;;5.53;5.03;;;;;;;;;;5118314;28;20210;-62
2023/04/09 12:16:14;;;;;;;6.10;5.38;;;;;;;;;;5117112;28;20234;-62
2023/04/09 12:18:42;;;;;;;5.68;5.10;;;;;;;;;;5097139;28;20222;-63
2023/04/09 12:21:09;;;;;;;6.05;5.25;;;;;;;;;;5097125;28;20218;-62
2023/04/09 12:23:36;;;;;;;6.50;5.60;;;;;;;;;;5097190;28;20203;-63
2023/04/09 12:26:04;;;;;;;7.18;5.60;;;;;;;;;;5097461;28;20235;-62
2023/04/09 12:28:33;;;;;;;6.00;5.40;;;;;;;;;;5096995;28;20744;-62
2023/04/09 12:31:02;;;;;;;5.93;5.32;;;;;;;;;;5096778;28;20211;-62
2023/04/09 12:33:29;;;;;;;6.75;5.60;;;;;;;;;;5128717;27;20198;-62
2023/04/09 12:35:57;;;;;;;6.05;5.43;;;;;;;;;;5137971;27;20213;-63
2023/04/09 12:38:25;;;;;;;9.25;5.35;;;;;;;;;;5137899;27;20567;-63
2023/04/09 12:40:52;;;;;;;5.82;5.22;;;;;;;;;;5137302;27;20209;-62
2023/04/09 12:43:20;;;;;;;6.30;5.70;;;;;;;;;;5138230;27;20676;-62
2023/04/09 12:45:49;;;;;;;7.22;5.50;;;;;;;;;;5138095;27;20216;-63
2023/04/09 12:48:16;;;;;;;5.50;4.95;;;;;;;;;;5119348;27;20206;-62
2023/04/09 12:50:44;;;;;;;6.13;5.53;;;;;;;;;;5116619;28;20239;-62
2023/04/09 12:53:11;;;;;;;6.50;5.90;;;;;;;;;;5116316;28;20258;-62
2023/04/09 12:55:38;;;;;;;6.50;5.45;;;;;;;;;;5117268;28;20211;-62
2023/04/09 12:58:06;;;;;;;6.70;5.55;;;;;;;;;;5116554;28;20207;-62
2023/04/09 13:00:33;;;;;;;5.70;5.10;;;;;;;;;;5116902;28;20210;-62
2023/04/09 13:03:02;;;;;;;6.57;5.97;;;;;;;;;;5116383;28;20203;-62
2023/04/09 13:05:31;;;;;;;5.47;4.97;;;;;;;;;;5117206;28;20225;-62
2023/04/09 13:07:58;;;;;;;5.70;5.15;;;;;;;;;;5116918;28;20230;-62
2023/04/09 13:10:26;;;;;;;5.20;4.72;;;;;;;;;;5116528;28;20210;-62
2023/04/09 13:12:53;;;;;;;6.22;5.18;;;;;;;;;;5116915;28;20210;-62
2023/04/09 13:15:21;;;;;;;5.60;5.10;;;;;;;;;;5132843;27;20232;-62
2023/04/09 13:17:48;;;;;;;5.88;5.30;;;;;;;;;;5116944;28;20203;-63
2023/04/09 13:20:17;;;;;;;5.68;5.18;;;;;;;;;;5116875;28;20202;-62
2023/04/09 13:22:47;;;;;;;5.57;5.07;;;;;;;;;;5116820;28;20238;-62
2023/04/09 13:25:15;;;;;;;5.68;5.18;;;;;;;;;;5116180;28;20202;-62
2023/04/09 13:27:42;;;;;;;5.50;5.00;;;;;;;;;;5122273;28;20297;-62
2023/04/09 13:30:10;;;;;;;5.30;4.90;;;;;;;;;;5137314;28;20203;-62
2023/04/09 13:32:37;;;;;;;4.95;4.55;;;;;;;;;;5136862;28;20209;-62
2023/04/09 13:35:05;;;;;;;5.32;4.82;;;;;;;;;;5137809;28;20203;-62
2023/04/09 13:37:34;;;;;;;5.63;5.07;;;;;;;;;;5137289;28;20202;-62
2023/04/09 13:40:01;;;;;;;5.70;5.13;;;;;;;;;;5137871;28;20626;-62
2023/04/09 13:42:28;;;;;;;5.45;4.95;;;;;;;;;;5137192;28;20582;-62
2023/04/09 13:44:56;;;;;;;5.35;4.85;;;;;;;;;;5124940;28;20206;-62
2023/04/09 13:47:23;;;;;;;4.88;4.32;;;;;;;;;;5116637;28;20237;-62
2023/04/09 13:49:51;;;;;;;5.57;5.03;;;;;;;;;;5117270;28;20233;-62
2023/04/09 13:52:19;;;;;;;5.20;4.70;;;;;;;;;;5116479;28;20203;-62
2023/04/09 13:54:48;;;;;;;4.93;4.43;;;;;;;;;;5116427;28;20291;-62
2023/04/09 13:57:15;;;;;;;4.97;4.47;;;;;;;;;;5116275;28;20195;-62
2023/04/09 13:59:42;;;;;;;4.88;4.40;;;;;;;;;;5115707;28;20207;-63
2023/04/09 14:02:10;;;;;;;5.05;4.65;;;;;;;;;;5116276;28;20199;-62
2023/04/09 14:04:37;;;;;;;4.80;4.40;;;;;;;;;;5117738;28;20260;-62
2023/04/09 14:07:05;;;;;;;4.57;4.18;;;;;;;;;;5119972;28;20283;-62
2023/04/09 14:09:32;;;;;;;5.30;4.80;;;;;;;;;;5119947;28;20203;-62
2023/04/09 14:12:01;;;;;;;5.45;4.72;;;;;;;;;;5129680;27;20206;-62
2023/04/09 14:14:28;;;;;;;4.60;4.20;;;;;;;;;;5140607;27;20270;-62
2023/04/09 14:16:56;;;;;;;5.05;4.65;;;;;;;;;;5140664;27;20209;-62
2023/04/09 14:19:23;;;;;;;4.90;4.50;;;;;;;;;;5140791;27;20276;-63
2023/04/09 14:21:52;;;;;;;4.90;4.40;;;;;;;;;;5140191;27;20234;-62
2023/04/09 14:24:21;;;;;;;5.00;4.60;;;;;;;;;;5140182;27;20650;-62
2023/04/09 14:26:50;;;;;;;4.75;4.35;;;;;;;;;;5140446;27;20229;-62
2023/04/09 14:29:18;;;;;;;4.97;4.57;;;;;;;;;;5139995;27;20567;-62
2023/04/09 14:31:46;;;;;;;7.13;4.85;;;;;;;;;;5140644;27;20202;-62
2023/04/09 14:34:13;;;;;;;5.20;4.78;;;;;;;;;;5140463;27;20593;-62
2023/04/09 14:36:40;;;;;;;4.90;4.38;;;;;;;;;;5140280;27;20198;-62
2023/04/09 14:39:07;;;;;;;4.93;4.53;;;;;;;;;;5132166;27;20225;-62
2023/04/09 14:41:35;;;;;;;4.63;4.22;;;;;;;;;;5119656;28;20206;-63
2023/04/09 14:44:03;;;;;;;5.10;4.70;;;;;;;;;;5119378;28;20198;-62
2023/04/09 14:46:31;;;;;;;5.18;4.68;;;;;;;;;;5119508;28;20202;-63
2023/04/09 14:48:59;;;;;;;4.90;4.40;;;;;;;;;;5119349;28;20268;-62